sensor_id;sensor_type;location;lat;lon;timestamp;P1;durP1;ratioP1;P2;durP2;ratioP2
33954;SDS011;20233;50.804;7.126;2023-06-19T00:00:56;6.25;;;5.65;;
33954;SDS011;20233;50.804;7.126;2023-06-19T00:03:22;7.78;;;6.47;;
33954;SDS011;20233;50.804;7.126;2023-06-19T00:05:47;8.15;;;5.53;;
33954;SDS011;20233;50.804;7.126;2023-06-19T00:08:13;6.10;;;5.53;;
33954;SDS011;20233;50.804;7.126;2023-06-19T00:10:38;7.45;;;5.63;;
33954;SDS011;20233;50.804;7.126;2023-06-19T00:13:04;8.50;;;6.03;;
33954;SDS011;20233;50.804;7.126;2023-06-19T00:15:29;6.10;;;5.53;;
33954;SDS011;20233;50.804;7.126;2023-06-19T00:17:57;6.93;;;6.18;;
33954;SDS011;20233;50.804;7.126;2023-06-19T00:20:24;6.22;;;5.60;;
33954;SDS011;20233;50.804;7.126;2023-06-19T00:22:50;6.25;;;5.65;;
33954;SDS011;20233;50.804;7.126;2023-06-19T00:25:16;6.85;;;6.25;;
33954;SDS011;20233;50.804;7.126;2023-06-19T00:27:43;10.52;;;6.70;;
33954;SDS011;20233;50.804;7.126;2023-06-19T00:30:09;6.63;;;5.93;;
33954;SDS011;20233;50.804;7.126;2023-06-19T00:32:34;7.55;;;5.95;;
33954;SDS011;20233;50.804;7.126;2023-06-19T00:35:11;7.45;;;6.65;;
33954;SDS011;20233;50.804;7.126;2023-06-19T00:37:40;7.35;;;6.32;;
33954;SDS011;20233;50.804;7.126;2023-06-19T00:40:09;9.15;;;6.45;;
33954;SDS011;20233;50.804;7.126;2023-06-19T00:42:39;8.57;;;6.30;;
33954;SDS011;20233;50.804;7.126;2023-06-19T00:45:04;8.20;;;7.30;;
33954;SDS011;20233;50.804;7.126;2023-06-19T00:47:30;7.70;;;7.00;;
33954;SDS011;20233;50.804;7.126;2023-06-19T00:49:58;7.55;;;6.10;;
33954;SDS011;20233;50.804;7.126;2023-06-19T00:52:27;6.50;;;5.85;;
33954;SDS011;20233;50.804;7.126;2023-06-19T00:54:52;6.93;;;6.22;;
33954;SDS011;20233;50.804;7.126;2023-06-19T00:57:18;8.18;;;6.65;;
33954;SDS011;20233;50.804;7.126;2023-06-19T00:59:44;7.13;;;6.43;;
33954;SDS011;20233;50.804;7.126;2023-06-19T01:02:10;8.27;;;6.20;;
33954;SDS011;20233;50.804;7.126;2023-06-19T01:04:36;7.43;;;6.72;;
33954;SDS011;20233;50.804;7.126;2023-06-19T01:07:05;7.60;;;6.60;;
33954;SDS011;20233;50.804;7.126;2023-06-19T01:09:42;7.38;;;6.63;;
33954;SDS011;20233;50.804;7.126;2023-06-19T01:12:22;7.90;;;6.88;;
33954;SDS011;20233;50.804;7.126;2023-06-19T01:14:54;7.55;;;6.85;;
33954;SDS011;20233;50.804;7.126;2023-06-19T01:17:23;7.57;;;6.88;;
33954;SDS011;20233;50.804;7.126;2023-06-19T01:19:50;8.25;;;7.43;;
33954;SDS011;20233;50.804;7.126;2023-06-19T01:22:26;9.85;;;7.20;;
33954;SDS011;20233;50.804;7.126;2023-06-19T01:24:55;7.80;;;6.72;;
33954;SDS011;20233;50.804;7.126;2023-06-19T01:27:21;9.98;;;6.85;;
33954;SDS011;20233;50.804;7.126;2023-06-19T01:29:54;10.68;;;7.25;;
33954;SDS011;20233;50.804;7.126;2023-06-19T01:34:59;7.72;;;6.93;;
33954;SDS011;20233;50.804;7.126;2023-06-19T01:37:27;7.43;;;6.72;;
33954;SDS011;20233;50.804;7.126;2023-06-19T01:39:54;8.70;;;6.80;;
33954;SDS011;20233;50.804;7.126;2023-06-19T01:42:23;8.07;;;7.03;;
33954;SDS011;20233;50.804;7.126;2023-06-19T01:44:49;7.35;;;6.65;;
33954;SDS011;20233;50.804;7.126;2023-06-19T01:47:15;7.80;;;6.93;;
33954;SDS011;20233;50.804;7.126;2023-06-19T01:49:45;8.38;;;6.82;;
33954;SDS011;20233;50.804;7.126;2023-06-19T01:52:11;7.75;;;6.95;;
33954;SDS011;20233;50.804;7.126;2023-06-19T01:54:37;8.07;;;7.22;;
33954;SDS011;20233;50.804;7.126;2023-06-19T01:57:03;8.13;;;7.32;;
33954;SDS011;20233;50.804;7.126;2023-06-19T01:59:29;9.13;;;7.43;;
33954;SDS011;20233;50.804;7.126;2023-06-19T02:01:54;7.85;;;7.05;;
33954;SDS011;20233;50.804;7.126;2023-06-19T02:04:20;8.23;;;6.93;;
33954;SDS011;20233;50.804;7.126;2023-06-19T02:06:46;8.88;;;7.50;;
33954;SDS011;20233;50.804;7.126;2023-06-19T02:09:11;6.82;;;6.15;;
33954;SDS011;20233;50.804;7.126;2023-06-19T02:11:37;9.05;;;7.13;;
33954;SDS011;20233;50.804;7.126;2023-06-19T02:14:02;8.75;;;7.47;;
33954;SDS011;20233;50.804;7.126;2023-06-19T02:16:28;8.23;;;7.50;;
33954;SDS011;20233;50.804;7.126;2023-06-19T02:18:53;8.18;;;7.30;;
33954;SDS011;20233;50.804;7.126;2023-06-19T02:21:20;8.38;;;7.38;;
33954;SDS011;20233;50.804;7.126;2023-06-19T02:23:46;8.55;;;7.03;;
33954;SDS011;20233;50.804;7.126;2023-06-19T02:26:11;8.57;;;7.78;;
33954;SDS011;20233;50.804;7.126;2023-06-19T02:28:37;8.63;;;7.78;;
33954;SDS011;20233;50.804;7.126;2023-06-19T02:31:03;8.25;;;7.40;;
33954;SDS011;20233;50.804;7.126;2023-06-19T02:33:28;7.85;;;7.05;;
33954;SDS011;20233;50.804;7.126;2023-06-19T02:35:54;7.68;;;6.70;;
33954;SDS011;20233;50.804;7.126;2023-06-19T02:38:23;8.27;;;7.40;;
33954;SDS011;20233;50.804;7.126;2023-06-19T02:40:50;8.63;;;7.15;;
33954;SDS011;20233;50.804;7.126;2023-06-19T02:43:15;8.13;;;7.22;;
33954;SDS011;20233;50.804;7.126;2023-06-19T02:45:41;8.88;;;7.93;;
33954;SDS011;20233;50.804;7.126;2023-06-19T02:48:07;8.57;;;7.78;;
33954;SDS011;20233;50.804;7.126;2023-06-19T02:50:33;8.38;;;7.50;;
33954;SDS011;20233;50.804;7.126;2023-06-19T02:52:59;8.43;;;7.50;;
33954;SDS011;20233;50.804;7.126;2023-06-19T02:55:24;7.53;;;6.75;;
33954;SDS011;20233;50.804;7.126;2023-06-19T02:57:50;8.90;;;8.07;;
33954;SDS011;20233;50.804;7.126;2023-06-19T03:00:16;8.13;;;7.32;;
33954;SDS011;20233;50.804;7.126;2023-06-19T03:02:42;9.27;;;7.85;;
33954;SDS011;20233;50.804;7.126;2023-06-19T03:05:09;8.98;;;8.00;;
33954;SDS011;20233;50.804;7.126;2023-06-19T03:07:35;10.00;;;7.88;;
33954;SDS011;20233;50.804;7.126;2023-06-19T03:10:00;10.43;;;7.63;;
33954;SDS011;20233;50.804;7.126;2023-06-19T03:12:26;8.20;;;7.30;;
33954;SDS011;20233;50.804;7.126;2023-06-19T03:14:51;9.63;;;8.57;;
33954;SDS011;20233;50.804;7.126;2023-06-19T03:17:17;9.50;;;8.30;;
33954;SDS011;20233;50.804;7.126;2023-06-19T03:19:43;11.32;;;8.52;;
33954;SDS011;20233;50.804;7.126;2023-06-19T03:22:08;8.43;;;7.63;;
33954;SDS011;20233;50.804;7.126;2023-06-19T03:24:34;8.15;;;7.32;;
33954;SDS011;20233;50.804;7.126;2023-06-19T03:26:59;8.95;;;7.88;;
33954;SDS011;20233;50.804;7.126;2023-06-19T03:29:25;10.18;;;7.55;;
33954;SDS011;20233;50.804;7.126;2023-06-19T03:31:51;9.05;;;8.15;;
33954;SDS011;20233;50.804;7.126;2023-06-19T03:34:17;9.77;;;8.45;;
33954;SDS011;20233;50.804;7.126;2023-06-19T03:36:42;8.30;;;7.50;;
33954;SDS011;20233;50.804;7.126;2023-06-19T03:39:08;9.80;;;8.52;;
33954;SDS011;20233;50.804;7.126;2023-06-19T03:41:33;9.18;;;8.27;;
33954;SDS011;20233;50.804;7.126;2023-06-19T03:43:59;9.07;;;8.13;;
33954;SDS011;20233;50.804;7.126;2023-06-19T03:46:24;9.63;;;8.55;;
33954;SDS011;20233;50.804;7.126;2023-06-19T03:48:50;9.82;;;8.77;;
33954;SDS011;20233;50.804;7.126;2023-06-19T03:51:15;9.27;;;8.38;;
33954;SDS011;20233;50.804;7.126;2023-06-19T03:53:44;11.50;;;8.52;;
33954;SDS011;20233;50.804;7.126;2023-06-19T03:56:10;10.00;;;7.95;;
33954;SDS011;20233;50.804;7.126;2023-06-19T03:58:35;8.88;;;7.97;;
33954;SDS011;20233;50.804;7.126;2023-06-19T04:01:01;8.48;;;7.60;;
33954;SDS011;20233;50.804;7.126;2023-06-19T04:03:27;10.45;;;8.20;;
33954;SDS011;20233;50.804;7.126;2023-06-19T04:05:52;9.55;;;8.35;;
33954;SDS011;20233;50.804;7.126;2023-06-19T04:08:20;7.72;;;6.90;;
33954;SDS011;20233;50.804;7.126;2023-06-19T04:10:46;10.15;;;6.70;;
33954;SDS011;20233;50.804;7.126;2023-06-19T04:13:12;7.30;;;6.07;;
33954;SDS011;20233;50.804;7.126;2023-06-19T04:15:38;6.60;;;5.97;;
33954;SDS011;20233;50.804;7.126;2023-06-19T04:18:03;6.22;;;5.50;;
33954;SDS011;20233;50.804;7.126;2023-06-19T04:20:29;9.85;;;6.03;;
33954;SDS011;20233;50.804;7.126;2023-06-19T04:22:54;6.75;;;5.18;;
33954;SDS011;20233;50.804;7.126;2023-06-19T04:25:22;6.00;;;4.63;;
33954;SDS011;20233;50.804;7.126;2023-06-19T04:27:47;5.95;;;4.43;;
33954;SDS011;20233;50.804;7.126;2023-06-19T04:30:13;6.25;;;4.53;;
33954;SDS011;20233;50.804;7.126;2023-06-19T04:32:38;10.40;;;4.68;;
33954;SDS011;20233;50.804;7.126;2023-06-19T04:35:05;7.65;;;4.65;;
33954;SDS011;20233;50.804;7.126;2023-06-19T04:37:32;5.53;;;4.93;;
33954;SDS011;20233;50.804;7.126;2023-06-19T04:39:57;7.00;;;5.05;;
33954;SDS011;20233;50.804;7.126;2023-06-19T04:42:24;12.35;;;5.00;;
33954;SDS011;20233;50.804;7.126;2023-06-19T04:44:51;4.85;;;4.35;;
33954;SDS011;20233;50.804;7.126;2023-06-19T04:47:19;6.05;;;4.90;;
33954;SDS011;20233;50.804;7.126;2023-06-19T04:49:50;5.80;;;5.00;;
33954;SDS011;20233;50.804;7.126;2023-06-19T04:52:15;6.30;;;4.50;;
33954;SDS011;20233;50.804;7.126;2023-06-19T04:54:41;6.00;;;4.88;;
33954;SDS011;20233;50.804;7.126;2023-06-19T04:57:06;6.10;;;4.72;;
33954;SDS011;20233;50.804;7.126;2023-06-19T04:59:32;5.93;;;5.00;;
33954;SDS011;20233;50.804;7.126;2023-06-19T05:01:58;7.45;;;4.85;;
33954;SDS011;20233;50.804;7.126;2023-06-19T05:04:25;7.20;;;5.10;;
33954;SDS011;20233;50.804;7.126;2023-06-19T05:06:52;6.20;;;4.40;;
33954;SDS011;20233;50.804;7.126;2023-06-19T05:09:18;5.95;;;4.72;;
33954;SDS011;20233;50.804;7.126;2023-06-19T05:11:45;6.20;;;4.63;;
33954;SDS011;20233;50.804;7.126;2023-06-19T05:14:11;7.95;;;5.15;;
33954;SDS011;20233;50.804;7.126;2023-06-19T05:16:39;6.05;;;4.85;;
33954;SDS011;20233;50.804;7.126;2023-06-19T05:19:06;7.25;;;5.22;;
33954;SDS011;20233;50.804;7.126;2023-06-19T05:21:32;7.57;;;4.63;;
33954;SDS011;20233;50.804;7.126;2023-06-19T05:24:01;6.57;;;5.03;;
33954;SDS011;20233;50.804;7.126;2023-06-19T05:26:30;10.73;;;4.82;;
33954;SDS011;20233;50.804;7.126;2023-06-19T05:28:57;8.25;;;5.35;;
33954;SDS011;20233;50.804;7.126;2023-06-19T05:31:24;8.07;;;5.32;;
33954;SDS011;20233;50.804;7.126;2023-06-19T05:33:54;10.95;;;5.82;;
33954;SDS011;20233;50.804;7.126;2023-06-19T05:36:21;5.78;;;5.18;;
33954;SDS011;20233;50.804;7.126;2023-06-19T05:38:49;6.30;;;5.30;;
33954;SDS011;20233;50.804;7.126;2023-06-19T05:41:16;6.30;;;4.70;;
33954;SDS011;20233;50.804;7.126;2023-06-19T05:43:42;5.93;;;4.10;;
33954;SDS011;20233;50.804;7.126;2023-06-19T05:46:10;14.77;;;5.03;;
33954;SDS011;20233;50.804;7.126;2023-06-19T05:48:37;9.40;;;4.90;;
33954;SDS011;20233;50.804;7.126;2023-06-19T05:51:04;10.98;;;4.97;;
33954;SDS011;20233;50.804;7.126;2023-06-19T05:53:30;6.63;;;4.72;;
33954;SDS011;20233;50.804;7.126;2023-06-19T05:55:57;6.75;;;4.45;;
33954;SDS011;20233;50.804;7.126;2023-06-19T05:58:33;5.70;;;4.93;;
33954;SDS011;20233;50.804;7.126;2023-06-19T06:01:00;6.90;;;4.75;;
33954;SDS011;20233;50.804;7.126;2023-06-19T06:03:28;8.35;;;5.25;;
33954;SDS011;20233;50.804;7.126;2023-06-19T06:05:57;10.52;;;4.80;;
33954;SDS011;20233;50.804;7.126;2023-06-19T06:08:30;7.72;;;4.53;;
33954;SDS011;20233;50.804;7.126;2023-06-19T06:10:58;8.07;;;4.80;;
33954;SDS011;20233;50.804;7.126;2023-06-19T06:13:25;4.72;;;4.22;;
33954;SDS011;20233;50.804;7.126;2023-06-19T06:15:52;5.90;;;4.85;;
33954;SDS011;20233;50.804;7.126;2023-06-19T06:18:19;6.82;;;4.45;;
33954;SDS011;20233;50.804;7.126;2023-06-19T06:20:46;8.13;;;4.45;;
33954;SDS011;20233;50.804;7.126;2023-06-19T06:23:12;5.85;;;3.90;;
33954;SDS011;20233;50.804;7.126;2023-06-19T06:25:39;5.57;;;4.85;;
33954;SDS011;20233;50.804;7.126;2023-06-19T06:28:05;7.18;;;4.32;;
33954;SDS011;20233;50.804;7.126;2023-06-19T06:30:34;8.02;;;4.53;;
33954;SDS011;20233;50.804;7.126;2023-06-19T06:33:02;9.52;;;5.47;;
33954;SDS011;20233;50.804;7.126;2023-06-19T06:35:28;6.47;;;5.57;;
33954;SDS011;20233;50.804;7.126;2023-06-19T06:37:55;6.15;;;5.18;;
33954;SDS011;20233;50.804;7.126;2023-06-19T06:40:22;8.80;;;5.28;;
33954;SDS011;20233;50.804;7.126;2023-06-19T06:42:48;5.85;;;4.50;;
33954;SDS011;20233;50.804;7.126;2023-06-19T06:45:14;7.03;;;4.45;;
33954;SDS011;20233;50.804;7.126;2023-06-19T06:47:41;7.20;;;4.97;;
33954;SDS011;20233;50.804;7.126;2023-06-19T06:50:08;5.85;;;5.18;;
33954;SDS011;20233;50.804;7.126;2023-06-19T06:52:35;8.85;;;5.65;;
33954;SDS011;20233;50.804;7.126;2023-06-19T06:55:02;9.82;;;5.47;;
33954;SDS011;20233;50.804;7.126;2023-06-19T06:57:30;7.50;;;5.18;;
33954;SDS011;20233;50.804;7.126;2023-06-19T06:59:57;8.75;;;5.45;;
33954;SDS011;20233;50.804;7.126;2023-06-19T07:02:23;12.57;;;5.22;;
33954;SDS011;20233;50.804;7.126;2023-06-19T07:04:51;6.28;;;3.97;;
33954;SDS011;20233;50.804;7.126;2023-06-19T07:07:18;5.95;;;4.13;;
33954;SDS011;20233;50.804;7.126;2023-06-19T07:09:44;6.38;;;3.95;;
33954;SDS011;20233;50.804;7.126;2023-06-19T07:12:11;13.73;;;4.80;;
33954;SDS011;20233;50.804;7.126;2023-06-19T07:14:39;8.30;;;4.40;;
33954;SDS011;20233;50.804;7.126;2023-06-19T07:17:07;5.32;;;4.35;;
33954;SDS011;20233;50.804;7.126;2023-06-19T07:19:35;4.90;;;4.03;;
33954;SDS011;20233;50.804;7.126;2023-06-19T07:22:03;5.85;;;4.47;;
33954;SDS011;20233;50.804;7.126;2023-06-19T07:24:29;5.28;;;4.20;;
33954;SDS011;20233;50.804;7.126;2023-06-19T07:26:56;5.10;;;4.00;;
33954;SDS011;20233;50.804;7.126;2023-06-19T07:29:23;3.67;;;3.15;;
33954;SDS011;20233;50.804;7.126;2023-06-19T07:31:51;3.33;;;3.03;;
33954;SDS011;20233;50.804;7.126;2023-06-19T07:34:18;13.80;;;3.75;;
33954;SDS011;20233;50.804;7.126;2023-06-19T07:36:45;4.47;;;2.83;;
33954;SDS011;20233;50.804;7.126;2023-06-19T07:39:12;3.75;;;2.58;;
33954;SDS011;20233;50.804;7.126;2023-06-19T07:41:38;6.25;;;3.30;;
33954;SDS011;20233;50.804;7.126;2023-06-19T07:44:06;4.95;;;3.65;;
33954;SDS011;20233;50.804;7.126;2023-06-19T07:46:32;5.38;;;2.25;;
33954;SDS011;20233;50.804;7.126;2023-06-19T07:48:59;3.38;;;1.80;;
33954;SDS011;20233;50.804;7.126;2023-06-19T07:51:26;1.75;;;1.05;;
33954;SDS011;20233;50.804;7.126;2023-06-19T07:53:52;2.70;;;1.20;;
33954;SDS011;20233;50.804;7.126;2023-06-19T07:56:20;2.38;;;0.82;;
33954;SDS011;20233;50.804;7.126;2023-06-19T07:58:47;2.88;;;1.20;;
33954;SDS011;20233;50.804;7.126;2023-06-19T08:01:13;2.85;;;1.17;;
33954;SDS011;20233;50.804;7.126;2023-06-19T08:03:41;2.85;;;1.30;;
33954;SDS011;20233;50.804;7.126;2023-06-19T08:06:08;7.28;;;1.45;;
33954;SDS011;20233;50.804;7.126;2023-06-19T08:08:35;2.70;;;0.70;;
33954;SDS011;20233;50.804;7.126;2023-06-19T08:11:02;1.80;;;0.68;;
33954;SDS011;20233;50.804;7.126;2023-06-19T08:13:28;1.80;;;0.40;;
33954;SDS011;20233;50.804;7.126;2023-06-19T08:15:55;1.75;;;0.30;;
33954;SDS011;20233;50.804;7.126;2023-06-19T08:18:23;1.90;;;0.38;;
33954;SDS011;20233;50.804;7.126;2023-06-19T08:20:50;0.57;;;0.20;;
33954;SDS011;20233;50.804;7.126;2023-06-19T08:23:17;1.60;;;0.30;;
33954;SDS011;20233;50.804;7.126;2023-06-19T08:25:44;3.80;;;0.43;;
33954;SDS011;20233;50.804;7.126;2023-06-19T08:28:11;3.88;;;0.60;;
33954;SDS011;20233;50.804;7.126;2023-06-19T08:30:38;2.17;;;0.20;;
33954;SDS011;20233;50.804;7.126;2023-06-19T08:33:05;1.05;;;0.30;;
33954;SDS011;20233;50.804;7.126;2023-06-19T08:35:32;1.08;;;0.30;;
33954;SDS011;20233;50.804;7.126;2023-06-19T08:37:59;1.15;;;0.30;;
33954;SDS011;20233;50.804;7.126;2023-06-19T08:40:33;3.40;;;0.25;;
33954;SDS011;20233;50.804;7.126;2023-06-19T08:43:00;4.47;;;0.47;;
33954;SDS011;20233;50.804;7.126;2023-06-19T08:45:31;1.98;;;0.30;;
33954;SDS011;20233;50.804;7.126;2023-06-19T08:47:58;2.40;;;0.30;;
33954;SDS011;20233;50.804;7.126;2023-06-19T08:50:31;6.18;;;0.30;;
33954;SDS011;20233;50.804;7.126;2023-06-19T08:52:59;2.10;;;0.28;;
33954;SDS011;20233;50.804;7.126;2023-06-19T08:55:28;0.80;;;0.30;;
33954;SDS011;20233;50.804;7.126;2023-06-19T08:57:55;2.25;;;0.32;;
33954;SDS011;20233;50.804;7.126;2023-06-19T09:00:23;1.90;;;0.30;;
33954;SDS011;20233;50.804;7.126;2023-06-19T09:02:51;2.10;;;0.32;;
33954;SDS011;20233;50.804;7.126;2023-06-19T09:05:18;2.38;;;0.50;;
33954;SDS011;20233;50.804;7.126;2023-06-19T09:07:54;1.20;;;0.30;;
33954;SDS011;20233;50.804;7.126;2023-06-19T09:10:23;2.15;;;0.50;;
33954;SDS011;20233;50.804;7.126;2023-06-19T09:13:00;1.83;;;0.50;;
33954;SDS011;20233;50.804;7.126;2023-06-19T09:15:30;0.77;;;0.30;;
33954;SDS011;20233;50.804;7.126;2023-06-19T09:18:02;1.75;;;0.40;;
33954;SDS011;20233;50.804;7.126;2023-06-19T09:20:29;2.75;;;0.55;;
33954;SDS011;20233;50.804;7.126;2023-06-19T09:22:57;1.85;;;0.45;;
33954;SDS011;20233;50.804;7.126;2023-06-19T09:25:26;2.50;;;0.70;;
33954;SDS011;20233;50.804;7.126;2023-06-19T09:27:56;6.28;;;0.60;;
33954;SDS011;20233;50.804;7.126;2023-06-19T09:30:23;2.25;;;0.55;;
33954;SDS011;20233;50.804;7.126;2023-06-19T09:32:50;3.33;;;0.77;;
33954;SDS011;20233;50.804;7.126;2023-06-19T09:35:18;4.28;;;0.60;;
33954;SDS011;20233;50.804;7.126;2023-06-19T09:37:46;3.67;;;0.52;;
33954;SDS011;20233;50.804;7.126;2023-06-19T09:40:16;3.33;;;0.80;;
33954;SDS011;20233;50.804;7.126;2023-06-19T09:42:43;3.38;;;0.90;;
33954;SDS011;20233;50.804;7.126;2023-06-19T09:45:13;3.33;;;0.90;;
33954;SDS011;20233;50.804;7.126;2023-06-19T09:47:45;3.38;;;1.00;;
33954;SDS011;20233;50.804;7.126;2023-06-19T09:50:16;3.17;;;0.82;;
33954;SDS011;20233;50.804;7.126;2023-06-19T09:52:44;1.90;;;0.88;;
33954;SDS011;20233;50.804;7.126;2023-06-19T09:55:11;2.00;;;1.00;;
33954;SDS011;20233;50.804;7.126;2023-06-19T09:57:38;3.33;;;1.00;;
33954;SDS011;20233;50.804;7.126;2023-06-19T10:00:07;3.42;;;0.82;;
33954;SDS011;20233;50.804;7.126;2023-06-19T10:02:42;1.58;;;0.90;;
33954;SDS011;20233;50.804;7.126;2023-06-19T10:05:09;2.08;;;0.90;;
33954;SDS011;20233;50.804;7.126;2023-06-19T10:07:37;1.60;;;0.73;;
33954;SDS011;20233;50.804;7.126;2023-06-19T10:10:07;1.35;;;0.80;;
33954;SDS011;20233;50.804;7.126;2023-06-19T10:12:36;2.05;;;1.10;;
33954;SDS011;20233;50.804;7.126;2023-06-19T10:15:17;1.52;;;0.70;;
33954;SDS011;20233;50.804;7.126;2023-06-19T10:20:32;3.90;;;1.00;;
33954;SDS011;20233;50.804;7.126;2023-06-19T10:23:14;2.03;;;0.90;;
33954;SDS011;20233;50.804;7.126;2023-06-19T10:25:47;2.00;;;1.27;;
33954;SDS011;20233;50.804;7.126;2023-06-19T10:28:24;3.63;;;1.40;;
33954;SDS011;20233;50.804;7.126;2023-06-19T10:30:57;2.08;;;1.00;;
33954;SDS011;20233;50.804;7.126;2023-06-19T10:33:34;3.20;;;1.30;;
33954;SDS011;20233;50.804;7.126;2023-06-19T10:36:21;2.35;;;1.30;;
33954;SDS011;20233;50.804;7.126;2023-06-19T10:38:51;2.83;;;1.20;;
33954;SDS011;20233;50.804;7.126;2023-06-19T10:41:20;2.92;;;0.90;;
33954;SDS011;20233;50.804;7.126;2023-06-19T10:43:58;3.13;;;1.33;;
33954;SDS011;20233;50.804;7.126;2023-06-19T10:46:31;2.13;;;0.90;;
33954;SDS011;20233;50.804;7.126;2023-06-19T10:48:59;3.03;;;1.23;;
33954;SDS011;20233;50.804;7.126;2023-06-19T10:51:28;3.63;;;1.48;;
33954;SDS011;20233;50.804;7.126;2023-06-19T10:53:57;5.20;;;1.38;;
33954;SDS011;20233;50.804;7.126;2023-06-19T10:56:24;2.17;;;1.15;;
33954;SDS011;20233;50.804;7.126;2023-06-19T10:58:58;4.45;;;1.48;;
33954;SDS011;20233;50.804;7.126;2023-06-19T11:01:37;3.35;;;1.10;;
33954;SDS011;20233;50.804;7.126;2023-06-19T11:04:09;2.70;;;1.45;;
33954;SDS011;20233;50.804;7.126;2023-06-19T11:06:37;3.10;;;1.30;;
33954;SDS011;20233;50.804;7.126;2023-06-19T11:09:03;4.22;;;1.42;;
33954;SDS011;20233;50.804;7.126;2023-06-19T11:11:35;2.08;;;1.20;;
33954;SDS011;20233;50.804;7.126;2023-06-19T11:14:02;2.20;;;1.13;;
33954;SDS011;20233;50.804;7.126;2023-06-19T11:16:28;3.47;;;1.25;;
33954;SDS011;20233;50.804;7.126;2023-06-19T11:18:58;2.47;;;1.30;;
33954;SDS011;20233;50.804;7.126;2023-06-19T11:21:30;2.35;;;1.20;;
33954;SDS011;20233;50.804;7.126;2023-06-19T11:24:11;3.63;;;1.50;;
33954;SDS011;20233;50.804;7.126;2023-06-19T11:26:38;2.10;;;1.20;;
33954;SDS011;20233;50.804;7.126;2023-06-19T11:29:18;4.03;;;1.77;;
33954;SDS011;20233;50.804;7.126;2023-06-19T11:31:49;5.10;;;1.60;;
33954;SDS011;20233;50.804;7.126;2023-06-19T11:36:45;2.63;;;1.27;;
33954;SDS011;20233;50.804;7.126;2023-06-19T11:39:13;3.42;;;1.48;;
33954;SDS011;20233;50.804;7.126;2023-06-19T11:41:41;4.63;;;1.40;;
33954;SDS011;20233;50.804;7.126;2023-06-19T11:44:09;3.33;;;1.67;;
33954;SDS011;20233;50.804;7.126;2023-06-19T11:46:36;1.80;;;1.10;;
33954;SDS011;20233;50.804;7.126;2023-06-19T11:49:13;3.28;;;1.60;;
33954;SDS011;20233;50.804;7.126;2023-06-19T11:51:44;2.83;;;1.50;;
33954;SDS011;20233;50.804;7.126;2023-06-19T11:54:12;4.47;;;1.58;;
33954;SDS011;20233;50.804;7.126;2023-06-19T11:56:40;4.03;;;1.30;;
33954;SDS011;20233;50.804;7.126;2023-06-19T11:59:07;3.55;;;1.35;;
33954;SDS011;20233;50.804;7.126;2023-06-19T12:01:35;3.13;;;1.60;;
33954;SDS011;20233;50.804;7.126;2023-06-19T12:04:04;2.20;;;1.10;;
33954;SDS011;20233;50.804;7.126;2023-06-19T12:06:30;3.22;;;1.80;;
33954;SDS011;20233;50.804;7.126;2023-06-19T12:08:58;2.63;;;1.38;;
33954;SDS011;20233;50.804;7.126;2023-06-19T12:11:25;2.67;;;1.50;;
33954;SDS011;20233;50.804;7.126;2023-06-19T12:13:52;4.03;;;1.60;;
33954;SDS011;20233;50.804;7.126;2023-06-19T12:16:21;3.72;;;1.17;;
33954;SDS011;20233;50.804;7.126;2023-06-19T12:18:53;2.53;;;1.30;;
33954;SDS011;20233;50.804;7.126;2023-06-19T12:21:19;3.30;;;1.23;;
33954;SDS011;20233;50.804;7.126;2023-06-19T12:23:45;4.80;;;1.58;;
33954;SDS011;20233;50.804;7.126;2023-06-19T12:26:12;2.63;;;1.10;;
33954;SDS011;20233;50.804;7.126;2023-06-19T12:28:38;6.60;;;1.30;;
33954;SDS011;20233;50.804;7.126;2023-06-19T12:31:06;2.08;;;1.02;;
33954;SDS011;20233;50.804;7.126;2023-06-19T12:33:33;2.72;;;1.15;;
33954;SDS011;20233;50.804;7.126;2023-06-19T12:36:07;2.30;;;1.33;;
33954;SDS011;20233;50.804;7.126;2023-06-19T12:38:38;3.22;;;1.23;;
33954;SDS011;20233;50.804;7.126;2023-06-19T12:41:08;2.28;;;1.30;;
33954;SDS011;20233;50.804;7.126;2023-06-19T12:43:34;4.07;;;1.50;;
33954;SDS011;20233;50.804;7.126;2023-06-19T12:46:00;1.92;;;1.10;;
33954;SDS011;20233;50.804;7.126;2023-06-19T12:48:29;4.78;;;1.45;;
33954;SDS011;20233;50.804;7.126;2023-06-19T12:50:57;4.40;;;1.23;;
33954;SDS011;20233;50.804;7.126;2023-06-19T12:53:25;16.05;;;2.50;;
33954;SDS011;20233;50.804;7.126;2023-06-19T12:55:58;15.10;;;2.58;;
33954;SDS011;20233;50.804;7.126;2023-06-19T12:58:25;4.05;;;2.22;;
33954;SDS011;20233;50.804;7.126;2023-06-19T13:00:53;2.42;;;1.40;;
33954;SDS011;20233;50.804;7.126;2023-06-19T13:03:20;2.15;;;1.38;;
33954;SDS011;20233;50.804;7.126;2023-06-19T13:05:47;3.63;;;1.48;;
33954;SDS011;20233;50.804;7.126;2023-06-19T13:08:14;9.70;;;1.88;;
33954;SDS011;20233;50.804;7.126;2023-06-19T13:10:41;3.40;;;1.50;;
33954;SDS011;20233;50.804;7.126;2023-06-19T13:13:11;2.67;;;1.02;;
33954;SDS011;20233;50.804;7.126;2023-06-19T13:15:39;2.05;;;1.20;;
33954;SDS011;20233;50.804;7.126;2023-06-19T13:18:05;3.28;;;1.40;;
33954;SDS011;20233;50.804;7.126;2023-06-19T13:20:32;3.70;;;1.33;;
33954;SDS011;20233;50.804;7.126;2023-06-19T13:22:59;4.65;;;1.40;;
33954;SDS011;20233;50.804;7.126;2023-06-19T13:25:25;3.92;;;1.23;;
33954;SDS011;20233;50.804;7.126;2023-06-19T13:27:53;2.70;;;1.75;;
33954;SDS011;20233;50.804;7.126;2023-06-19T13:30:20;3.28;;;1.58;;
33954;SDS011;20233;50.804;7.126;2023-06-19T13:32:46;5.32;;;1.65;;
33954;SDS011;20233;50.804;7.126;2023-06-19T13:35:13;2.85;;;1.30;;
33954;SDS011;20233;50.804;7.126;2023-06-19T13:37:40;3.20;;;1.50;;
33954;SDS011;20233;50.804;7.126;2023-06-19T13:40:07;6.15;;;1.33;;
33954;SDS011;20233;50.804;7.126;2023-06-19T13:42:33;28.60;;;3.33;;
33954;SDS011;20233;50.804;7.126;2023-06-19T13:45:01;3.55;;;1.30;;
33954;SDS011;20233;50.804;7.126;2023-06-19T13:47:28;3.25;;;1.15;;
33954;SDS011;20233;50.804;7.126;2023-06-19T13:49:55;2.15;;;1.00;;
33954;SDS011;20233;50.804;7.126;2023-06-19T13:52:23;1.73;;;1.10;;
33954;SDS011;20233;50.804;7.126;2023-06-19T13:54:49;4.43;;;1.30;;
33954;SDS011;20233;50.804;7.126;2023-06-19T13:57:16;3.00;;;0.88;;
33954;SDS011;20233;50.804;7.126;2023-06-19T13:59:43;3.13;;;1.13;;
33954;SDS011;20233;50.804;7.126;2023-06-19T14:02:10;3.10;;;1.30;;
33954;SDS011;20233;50.804;7.126;2023-06-19T14:04:36;2.05;;;1.40;;
33954;SDS011;20233;50.804;7.126;2023-06-19T14:07:03;2.45;;;1.10;;
33954;SDS011;20233;50.804;7.126;2023-06-19T14:09:32;3.37;;;1.20;;
33954;SDS011;20233;50.804;7.126;2023-06-19T14:12:00;2.00;;;0.70;;
33954;SDS011;20233;50.804;7.126;2023-06-19T14:14:27;2.13;;;1.00;;
33954;SDS011;20233;50.804;7.126;2023-06-19T14:16:54;3.08;;;1.33;;
33954;SDS011;20233;50.804;7.126;2023-06-19T14:19:23;2.28;;;1.05;;
33954;SDS011;20233;50.804;7.126;2023-06-19T14:21:49;3.08;;;1.50;;
33954;SDS011;20233;50.804;7.126;2023-06-19T14:24:17;2.30;;;1.10;;
33954;SDS011;20233;50.804;7.126;2023-06-19T14:26:43;2.95;;;1.08;;
33954;SDS011;20233;50.804;7.126;2023-06-19T14:29:10;3.00;;;1.48;;
33954;SDS011;20233;50.804;7.126;2023-06-19T14:31:41;3.72;;;1.23;;
33954;SDS011;20233;50.804;7.126;2023-06-19T14:34:08;2.08;;;1.02;;
33954;SDS011;20233;50.804;7.126;2023-06-19T14:36:36;2.58;;;1.20;;
33954;SDS011;20233;50.804;7.126;2023-06-19T14:39:03;2.80;;;1.20;;
33954;SDS011;20233;50.804;7.126;2023-06-19T14:41:30;2.92;;;1.00;;
33954;SDS011;20233;50.804;7.126;2023-06-19T14:43:57;2.72;;;1.02;;
33954;SDS011;20233;50.804;7.126;2023-06-19T14:46:24;2.20;;;1.50;;
33954;SDS011;20233;50.804;7.126;2023-06-19T14:48:50;3.95;;;1.52;;
33954;SDS011;20233;50.804;7.126;2023-06-19T14:51:18;2.63;;;1.33;;
33954;SDS011;20233;50.804;7.126;2023-06-19T14:53:45;4.57;;;1.15;;
33954;SDS011;20233;50.804;7.126;2023-06-19T14:56:12;3.40;;;1.30;;
33954;SDS011;20233;50.804;7.126;2023-06-19T14:58:39;2.83;;;1.50;;